Time;durP1;ratioP1;P1;durP2;ratioP2;P2;SDS_P1;SDS_P2;PMS_P1;PMS_P2;Temp;Humidity;BMP_temperature;BMP_pressure;BME280_temperature;BME280_humidity;BME280_pressure;Samples;Min_cycle;Max_cycle;Signal;HPM_P1;HPM_P2
2021/11/19 00:02:20;;;;;;;17.85;12.88;;;;;;;;;;10274010;28;20552;-63
2021/11/19 00:07:20;;;;;;;21.17;14.88;;;;;;;;;;10290035;28;20041;-64
2021/11/19 00:12:18;;;;;;;20.83;14.65;;;;;;;;;;10281765;28;20047;-63
2021/11/19 00:17:16;;;;;;;18.25;14.10;;;;;;;;;;10280480;28;20458;-63
2021/11/19 00:22:15;;;;;;;22.33;15.77;;;;;;;;;;10279674;28;20064;-63
2021/11/19 00:27:16;;;;;;;19.48;15.02;;;;;;;;;;10278137;28;20081;-65
2021/11/19 00:32:15;;;;;;;21.75;16.08;;;;;;;;;;10280391;28;20064;-62
2021/11/19 00:37:14;;;;;;;22.10;15.80;;;;;;;;;;10298358;28;20140;-62
2021/11/19 00:42:12;;;;;;;17.58;13.43;;;;;;;;;;10289987;28;20072;-65
2021/11/19 00:47:12;;;;;;;26.77;18.77;;;;;;;;;;10290132;28;20099;-63
2021/11/19 00:52:12;;;;;;;16.38;12.68;;;;;;;;;;10287360;28;20041;-62
2021/11/19 00:57:11;;;;;;;18.33;13.43;;;;;;;;;;10279356;28;20065;-63
2021/11/19 01:02:10;;;;;;;36.80;22.15;;;;;;;;;;10277744;28;20076;-63
2021/11/19 01:07:11;;;;;;;32.33;19.42;;;;;;;;;;10293820;28;20457;-64
2021/11/19 01:12:11;;;;;;;16.55;12.82;;;;;;;;;;10277910;28;20049;-63
2021/11/19 01:17:13;;;;;;;17.08;12.88;;;;;;;;;;10277625;28;20060;-62
2021/11/19 01:22:14;;;;;;;20.65;14.48;;;;;;;;;;10277533;28;20083;-62
2021/11/19 01:27:13;;;;;;;16.10;12.30;;;;;;;;;;10277331;28;20410;-62
2021/11/19 01:32:13;;;;;;;19.67;13.02;;;;;;;;;;10275801;28;20532;-62
2021/11/19 01:37:42;;;;;;;23.33;13.70;;;;;;;;;;10302321;28;20218;-62
2021/11/19 01:42:52;;;;;;;20.77;13.25;;;;;;;;;;10278033;28;20076;-62
2021/11/19 01:47:53;;;;;;;18.77;12.85;;;;;;;;;;10275623;28;20076;-62
2021/11/19 01:52:56;;;;;;;18.95;12.38;;;;;;;;;;10276062;28;20083;-62
2021/11/19 01:57:59;;;;;;;16.60;12.68;;;;;;;;;;10275515;28;20045;-62
2021/11/19 02:02:59;;;;;;;16.73;12.55;;;;;;;;;;10277698;28;20068;-62
2021/11/19 02:08:06;;;;;;;18.05;12.68;;;;;;;;;;10275241;28;20049;-62
2021/11/19 02:13:19;;;;;;;25.80;15.90;;;;;;;;;;10306451;28;20426;-62
2021/11/19 02:18:24;;;;;;;29.70;18.10;;;;;;;;;;10275622;28;20064;-63
2021/11/19 02:23:24;;;;;;;19.58;12.52;;;;;;;;;;10286818;28;20064;-62
2021/11/19 02:28:25;;;;;;;18.13;12.43;;;;;;;;;;10274968;28;20041;-63
2021/11/19 02:33:27;;;;;;;20.15;13.77;;;;;;;;;;10275697;28;20053;-62
2021/11/19 02:38:30;;;;;;;17.30;13.48;;;;;;;;;;10288830;28;20449;-62
2021/11/19 02:43:29;;;;;;;18.23;13.63;;;;;;;;;;10278529;28;20076;-62
2021/11/19 02:48:30;;;;;;;18.50;13.88;;;;;;;;;;10282723;28;20501;-62
2021/11/19 02:53:32;;;;;;;18.30;14.45;;;;;;;;;;10274357;28;20057;-62
2021/11/19 02:58:33;;;;;;;22.63;15.88;;;;;;;;;;10274687;28;20475;-62
2021/11/19 03:03:32;;;;;;;21.42;16.35;;;;;;;;;;10284045;28;20048;-62
2021/11/19 03:08:33;;;;;;;26.00;16.10;;;;;;;;;;10283974;28;20075;-62
2021/11/19 03:13:33;;;;;;;24.13;17.63;;;;;;;;;;10274293;28;20049;-62
2021/11/19 03:18:31;;;;;;;24.75;17.15;;;;;;;;;;10273426;28;20041;-63
2021/11/19 03:23:31;;;;;;;23.02;17.50;;;;;;;;;;10274061;28;20068;-62
2021/11/19 03:28:31;;;;;;;24.85;16.50;;;;;;;;;;10274267;28;20091;-63
2021/11/19 03:33:32;;;;;;;20.10;15.85;;;;;;;;;;10274141;28;20057;-62
2021/11/19 03:38:32;;;;;;;23.70;17.25;;;;;;;;;;10288312;28;20056;-64
2021/11/19 03:43:35;;;;;;;24.85;16.95;;;;;;;;;;10278719;28;20187;-62
2021/11/19 03:48:35;;;;;;;23.25;16.50;;;;;;;;;;10285043;28;20073;-62
2021/11/19 03:53:33;;;;;;;21.08;15.82;;;;;;;;;;10281169;28;20525;-63
2021/11/19 03:58:37;;;;;;;22.40;16.63;;;;;;;;;;10280350;28;20077;-63
2021/11/19 04:03:36;;;;;;;20.83;15.52;;;;;;;;;;10290521;28;20080;-63
2021/11/19 04:08:35;;;;;;;19.80;15.23;;;;;;;;;;10279698;28;20041;-63
2021/11/19 04:13:37;;;;;;;19.75;14.93;;;;;;;;;;10280641;28;20425;-64
2021/11/19 04:18:36;;;;;;;17.08;13.57;;;;;;;;;;10281004;28;20076;-63
2021/11/19 04:23:34;;;;;;;18.98;14.50;;;;;;;;;;10279739;28;20084;-62
2021/11/19 04:28:33;;;;;;;20.77;15.02;;;;;;;;;;10279725;28;20041;-62
2021/11/19 04:33:51;;;;;;;26.25;18.38;;;;;;;;;;10286363;28;20525;-62
2021/11/19 04:38:50;;;;;;;23.27;16.83;;;;;;;;;;10293382;28;20044;-63
2021/11/19 04:43:49;;;;;;;24.92;17.38;;;;;;;;;;10278274;28;20087;-63
2021/11/19 04:48:47;;;;;;;26.05;19.20;;;;;;;;;;10279609;28;20072;-63
2021/11/19 04:53:47;;;;;;;22.77;17.35;;;;;;;;;;10277739;28;20311;-63
2021/11/19 04:58:48;;;;;;;26.92;19.77;;;;;;;;;;10278143;28;20432;-63
2021/11/19 05:03:47;;;;;;;32.08;23.23;;;;;;;;;;10278662;28;20468;-63
2021/11/19 05:08:47;;;;;;;50.85;30.95;;;;;;;;;;10277609;28;20052;-62
2021/11/19 05:13:47;;;;;;;37.65;27.05;;;;;;;;;;10276596;28;20080;-62
2021/11/19 05:18:46;;;;;;;32.42;23.25;;;;;;;;;;10277326;28;20045;-62
2021/11/19 05:23:45;;;;;;;25.63;19.10;;;;;;;;;;10277922;28;20079;-63
2021/11/19 05:28:45;;;;;;;25.27;18.83;;;;;;;;;;10276307;28;20045;-62
2021/11/19 05:33:45;;;;;;;30.92;20.25;;;;;;;;;;10276059;28;20063;-62
2021/11/19 05:38:43;;;;;;;29.42;22.05;;;;;;;;;;10304173;28;20048;-63
2021/11/19 05:43:49;;;;;;;27.65;21.77;;;;;;;;;;10276299;28;20126;-63
2021/11/19 05:49:01;;;;;;;;;;;;;;;;;;10288575;28;20328;-62
2021/11/19 05:54:00;;;;;;;27.35;20.17;;;;;;;;;;10281035;28;20754;-62
2021/11/19 05:59:00;;;;;;;28.08;21.15;;;;;;;;;;10285615;28;20087;-63
2021/11/19 06:04:25;;;;;;;27.27;20.30;;;;;;;;;;10275036;28;20079;-63
2021/11/19 06:09:31;;;;;;;27.92;22.15;;;;;;;;;;10280690;28;20521;-64
2021/11/19 06:14:34;;;;;;;35.40;25.50;;;;;;;;;;10279553;28;20076;-64
2021/11/19 06:19:35;;;;;;;32.55;23.33;;;;;;;;;;10281429;28;20076;-64
2021/11/19 06:24:35;;;;;;;29.75;23.58;;;;;;;;;;10282901;28;20465;-64
2021/11/19 06:29:35;;;;;;;31.38;24.48;;;;;;;;;;10275104;28;20084;-64
2021/11/19 06:34:33;;;;;;;33.53;23.70;;;;;;;;;;10286139;28;20079;-65
2021/11/19 06:39:33;;;;;;;33.22;25.27;;;;;;;;;;10290823;28;20080;-64
2021/11/19 06:44:34;;;;;;;33.05;25.83;;;;;;;;;;10273040;28;20084;-64
2021/11/19 06:49:43;;;;;;;40.88;30.65;;;;;;;;;;10271028;28;20076;-63
2021/11/19 06:54:42;;;;;;;33.60;24.70;;;;;;;;;;10272066;28;20079;-64
2021/11/19 06:59:42;;;;;;;33.55;23.75;;;;;;;;;;10271977;28;20079;-64
2021/11/19 07:04:40;;;;;;;29.33;23.58;;;;;;;;;;10271217;28;20076;-63
2021/11/19 07:09:39;;;;;;;39.45;28.67;;;;;;;;;;10271092;28;20080;-64
2021/11/19 07:14:40;;;;;;;30.67;23.58;;;;;;;;;;10271550;28;20052;-64
2021/11/19 07:19:41;;;;;;;30.15;23.85;;;;;;;;;;10270632;28;20115;-64
2021/11/19 07:24:40;;;;;;;32.83;25.67;;;;;;;;;;10270079;28;20099;-64
2021/11/19 07:29:44;;;;;;;27.27;21.90;;;;;;;;;;10272487;28;20057;-64
2021/11/19 07:35:04;;;;;;;37.45;26.38;;;;;;;;;;10270598;28;20406;-64
2021/11/19 07:40:28;;;;;;;33.10;24.73;;;;;;;;;;10284171;28;20072;-64
2021/11/19 07:45:49;;;;;;;29.20;24.63;;;;;;;;;;10270527;28;20080;-64
2021/11/19 07:50:56;;;;;;;35.78;27.05;;;;;;;;;;10269591;28;20818;-63
2021/11/19 07:55:56;;;;;;;27.83;20.35;;;;;;;;;;10269813;28;20072;-64
2021/11/19 08:00:57;;;;;;;26.23;22.30;;;;;;;;;;10269458;28;20076;-64
2021/11/19 08:05:58;;;;;;;33.92;26.23;;;;;;;;;;10269598;28;20080;-64
2021/11/19 08:10:59;;;;;;;35.35;23.35;;;;;;;;;;10269873;28;20422;-64
2021/11/19 08:15:58;;;;;;;62.42;39.72;;;;;;;;;;10269659;28;20503;-64
2021/11/19 08:21:03;;;;;;;34.28;27.25;;;;;;;;;;10269601;28;20080;-64
2021/11/19 08:26:04;;;;;;;28.95;24.17;;;;;;;;;;10269890;28;20076;-64
2021/11/19 08:31:03;;;;;;;29.40;22.65;;;;;;;;;;10277261;28;20079;-64
2021/11/19 08:36:03;;;;;;;28.42;20.35;;;;;;;;;;10277746;28;20091;-65
2021/11/19 08:41:02;;;;;;;28.55;23.70;;;;;;;;;;10277646;28;20385;-64
2021/11/19 08:46:02;;;;;;;29.35;23.55;;;;;;;;;;10277122;28;20077;-64
2021/11/19 08:51:01;;;;;;;27.48;21.48;;;;;;;;;;10276874;28;20073;-64
2021/11/19 08:56:02;;;;;;;29.48;22.10;;;;;;;;;;10276751;28;20083;-64
2021/11/19 09:01:01;;;;;;;29.63;22.20;;;;;;;;;;10276855;28;20077;-63
2021/11/19 09:05:59;;;;;;;22.98;19.58;;;;;;;;;;10276872;28;20513;-63
2021/11/19 09:10:58;;;;;;;27.83;20.75;;;;;;;;;;10276135;28;20073;-63
2021/11/19 09:15:59;;;;;;;35.00;24.77;;;;;;;;;;10276000;28;20060;-63
2021/11/19 09:21:12;;;;;;;26.95;20.75;;;;;;;;;;10276049;28;20060;-63
2021/11/19 09:26:12;;;;;;;26.13;21.15;;;;;;;;;;10273644;28;20119;-63
2021/11/19 09:31:13;;;;;;;23.70;19.73;;;;;;;;;;10275797;28;20079;-63
2021/11/19 09:36:11;;;;;;;27.95;19.95;;;;;;;;;;10275347;28;20087;-64
2021/11/19 09:41:33;;;;;;;23.77;19.40;;;;;;;;;;10288095;28;20072;-64
2021/11/19 09:46:50;;;;;;;21.95;17.30;;;;;;;;;;10275341;28;20083;-64
2021/11/19 09:52:12;;;;;;;26.08;19.13;;;;;;;;;;10274980;28;20081;-64
2021/11/19 09:57:29;;;;;;;19.25;15.48;;;;;;;;;;10274859;28;20064;-64
2021/11/19 10:02:46;;;;;;;20.25;17.45;;;;;;;;;;10273382;28;20076;-63
2021/11/19 10:07:50;;;;;;;21.15;15.75;;;;;;;;;;10274213;28;20084;-66
2021/11/19 10:12:56;;;;;;;18.67;15.15;;;;;;;;;;10274146;28;20088;-64
2021/11/19 10:17:59;;;;;;;25.80;18.88;;;;;;;;;;10274123;28;20525;-64
2021/11/19 10:23:09;;;;;;;29.50;21.70;;;;;;;;;;10278917;28;20068;-64
2021/11/19 10:28:09;;;;;;;24.92;20.65;;;;;;;;;;10280284;28;20469;-63
2021/11/19 10:33:13;;;;;;;22.00;16.73;;;;;;;;;;10273471;28;20069;-63
2021/11/19 10:38:30;;;;;;;19.80;16.15;;;;;;;;;;10285825;28;20075;-64
2021/11/19 10:43:47;;;;;;;20.08;15.88;;;;;;;;;;10283304;28;20075;-64
2021/11/19 10:49:03;;;;;;;23.17;17.90;;;;;;;;;;10278113;28;21291;-62
2021/11/19 10:54:22;;;;;;;24.95;17.98;;;;;;;;;;10272188;28;20049;-64
2021/11/19 10:59:33;;;;;;;20.58;16.75;;;;;;;;;;10271741;28;20068;-63
2021/11/19 11:04:38;;;;;;;25.02;19.67;;;;;;;;;;10271987;28;20087;-63
2021/11/19 11:09:44;;;;;;;27.98;20.52;;;;;;;;;;10271696;28;20084;-64
2021/11/19 11:14:43;;;;;;;30.00;23.73;;;;;;;;;;10272177;28;20529;-63
2021/11/19 11:19:44;;;;;;;26.38;18.73;;;;;;;;;;10271807;28;20493;-58
2021/11/19 11:24:46;;;;;;;28.02;19.52;;;;;;;;;;10271094;28;20087;-58
2021/11/19 11:29:56;;;;;;;20.63;14.57;;;;;;;;;;10281803;28;20535;-59
2021/11/19 11:35:00;;;;;;;20.75;16.60;;;;;;;;;;10271140;28;20118;-59
2021/11/19 11:40:08;;;;;;;20.35;16.92;;;;;;;;;;10285462;28;20081;-59
2021/11/19 11:45:22;;;;;;;27.85;19.00;;;;;;;;;;10289675;28;20090;-57
2021/11/19 11:50:26;;;;;;;20.75;15.60;;;;;;;;;;10271276;28;20446;-59
2021/11/19 11:55:28;;;;;;;21.33;16.05;;;;;;;;;;10270290;28;20488;-59
2021/11/19 12:00:32;;;;;;;17.58;14.70;;;;;;;;;;10281833;28;20080;-58
2021/11/19 12:05:34;;;;;;;23.35;15.20;;;;;;;;;;10277594;28;20068;-59
2021/11/19 12:10:39;;;;;;;20.08;17.20;;;;;;;;;;10278354;28;20083;-59
2021/11/19 12:15:42;;;;;;;22.70;16.65;;;;;;;;;;10278396;28;20069;-58
2021/11/19 12:20:49;;;;;;;20.63;16.45;;;;;;;;;;10285850;28;20040;-59
2021/11/19 12:25:57;;;;;;;21.23;15.05;;;;;;;;;;10278108;28;20449;-59
2021/11/19 12:30:58;;;;;;;23.23;17.77;;;;;;;;;;10277395;28;20092;-58
2021/11/19 12:36:00;;;;;;;24.30;16.00;;;;;;;;;;10278094;28;20603;-58
2021/11/19 12:41:01;;;;;;;21.15;16.38;;;;;;;;;;10291365;28;20069;-59
2021/11/19 12:46:05;;;;;;;27.58;18.27;;;;;;;;;;10276439;28;20069;-59
2021/11/19 12:51:25;;;;;;;41.35;22.73;;;;;;;;;;10277286;28;20076;-59
2021/11/19 12:56:39;;;;;;;23.13;16.40;;;;;;;;;;10276776;28;20068;-58
2021/11/19 13:01:41;;;;;;;38.80;25.17;;;;;;;;;;10275466;28;20045;-58
2021/11/19 13:06:42;;;;;;;28.15;17.60;;;;;;;;;;10276591;28;20079;-59
2021/11/19 13:11:55;;;;;;;19.40;15.07;;;;;;;;;;10276372;28;20516;-59
2021/11/19 13:16:55;;;;;;;24.08;16.90;;;;;;;;;;10274053;28;20080;-59
2021/11/19 13:21:56;;;;;;;28.48;20.00;;;;;;;;;;10276154;28;20083;-60
2021/11/19 13:26:55;;;;;;;42.92;24.52;;;;;;;;;;10275913;28;20478;-59
2021/11/19 13:31:56;;;;;;;36.42;23.27;;;;;;;;;;10275891;28;20072;-59
2021/11/19 13:37:09;;;;;;;31.23;19.42;;;;;;;;;;10277648;28;20071;-58
2021/11/19 13:42:26;;;;;;;38.88;22.00;;;;;;;;;;10282534;28;20073;-58
2021/11/19 13:47:43;;;;;;;20.80;14.88;;;;;;;;;;10274003;28;20072;-59
2021/11/19 13:52:45;;;;;;;39.15;22.88;;;;;;;;;;10275165;28;20060;-60
2021/11/19 13:57:52;;;;;;;70.43;37.38;;;;;;;;;;10274614;28;20073;-59
2021/11/19 14:02:54;;;;;;;32.60;22.77;;;;;;;;;;10273977;28;20078;-60
2021/11/19 14:07:56;;;;;;;41.92;21.85;;;;;;;;;;10273241;28;20072;-60
2021/11/19 14:12:58;;;;;;;54.38;28.15;;;;;;;;;;10273896;28;20548;-60
2021/11/19 14:18:14;;;;;;;107.85;61.55;;;;;;;;;;10300761;28;20080;-60
2021/11/19 14:23:22;;;;;;;45.08;30.55;;;;;;;;;;10273585;28;20536;-60
2021/11/19 14:28:22;;;;;;;31.30;23.35;;;;;;;;;;10272339;28;20065;-61
2021/11/19 14:33:24;;;;;;;54.88;35.20;;;;;;;;;;10274051;28;20076;-62
2021/11/19 14:38:26;;;;;;;29.38;19.90;;;;;;;;;;10272111;28;20060;-62
2021/11/19 14:43:25;;;;;;;68.25;39.63;;;;;;;;;;10271690;28;20060;-62
2021/11/19 14:48:25;;;;;;;58.67;43.00;;;;;;;;;;10271844;28;20077;-62
2021/11/19 14:53:38;;;;;;;127.68;77.32;;;;;;;;;;10273803;28;20075;-61
2021/11/19 14:58:38;;;;;;;122.55;66.85;;;;;;;;;;10271922;28;20083;-61
2021/11/19 15:03:44;;;;;;;48.75;35.30;;;;;;;;;;10272563;28;20072;-61
2021/11/19 15:08:44;;;;;;;73.32;44.20;;;;;;;;;;10271156;28;20545;-62
2021/11/19 15:13:54;;;;;;;53.25;35.35;;;;;;;;;;10271234;28;20083;-61
2021/11/19 15:18:53;;;;;;;49.88;33.85;;;;;;;;;;10278218;28;20079;-60
2021/11/19 15:23:56;;;;;;;34.70;26.95;;;;;;;;;;10284697;28;20375;-61
2021/11/19 15:29:10;;;;;;;44.10;26.67;;;;;;;;;;10280827;28;20082;-60
2021/11/19 15:34:15;;;;;;;35.55;24.20;;;;;;;;;;10282054;28;20061;-61
2021/11/19 15:39:14;;;;;;;;;;;;;;;;;;10292347;28;20063;-61
2021/11/19 15:44:15;;;;;;;51.67;35.30;;;;;;;;;;10279224;28;19959;-61
2021/11/19 15:49:14;;;;;;;46.65;30.73;;;;;;;;;;10279098;28;20500;-60
2021/11/19 15:54:14;;;;;;;46.17;33.90;;;;;;;;;;10278729;28;20061;-61
2021/11/19 15:59:21;;;;;;;29.77;26.10;;;;;;;;;;10279432;28;20044;-61
2021/11/19 16:04:43;;;;;;;26.15;19.27;;;;;;;;;;10278689;28;20477;-62
2021/11/19 16:09:47;;;;;;;22.35;17.92;;;;;;;;;;10278970;28;20069;-60
2021/11/19 16:14:47;;;;;;;26.23;20.08;;;;;;;;;;10278381;28;20523;-60
2021/11/19 16:19:45;;;;;;;21.02;15.35;;;;;;;;;;10288336;28;20073;-60
2021/11/19 16:24:43;;;;;;;34.13;23.45;;;;;;;;;;10277393;28;20720;-61
2021/11/19 16:29:43;;;;;;;47.83;30.92;;;;;;;;;;10277773;28;20068;-61
2021/11/19 16:34:45;;;;;;;23.30;18.83;;;;;;;;;;10277836;28;20103;-61
2021/11/19 16:39:44;;;;;;;25.52;19.25;;;;;;;;;;10291173;28;20090;-61
2021/11/19 16:44:44;;;;;;;26.15;18.08;;;;;;;;;;10277412;28;20318;-61
2021/11/19 16:49:44;;;;;;;28.58;18.73;;;;;;;;;;10281245;28;20096;-61
2021/11/19 16:54:43;;;;;;;26.20;19.30;;;;;;;;;;10276525;28;20068;-61
2021/11/19 16:59:42;;;;;;;26.67;19.63;;;;;;;;;;10276101;28;20478;-59
2021/11/19 17:04:41;;;;;;;20.88;14.70;;;;;;;;;;10275907;28;20497;-60
2021/11/19 17:09:41;;;;;;;27.35;20.35;;;;;;;;;;10276089;28;20045;-60
2021/11/19 17:14:39;;;;;;;22.33;17.15;;;;;;;;;;10275324;28;20079;-61
2021/11/19 17:19:38;;;;;;;22.25;14.65;;;;;;;;;;10275244;28;20078;-61
2021/11/19 17:24:37;;;;;;;33.28;21.60;;;;;;;;;;10275208;28;20076;-61
2021/11/19 17:29:38;;;;;;;43.70;27.23;;;;;;;;;;10277306;28;20079;-60
2021/11/19 17:34:36;;;;;;;27.05;19.70;;;;;;;;;;10280762;28;20116;-60
2021/11/19 17:39:38;;;;;;;37.70;27.88;;;;;;;;;;10287115;28;20056;-60
2021/11/19 17:44:37;;;;;;;31.42;21.65;;;;;;;;;;10281253;28;20068;-58
2021/11/19 17:49:36;;;;;;;17.63;12.60;;;;;;;;;;10279624;28;20091;-58
2021/11/19 17:54:35;;;;;;;28.30;20.08;;;;;;;;;;10283056;28;20071;-61
2021/11/19 17:59:38;;;;;;;23.15;17.38;;;;;;;;;;10282989;28;20072;-61
2021/11/19 18:04:39;;;;;;;21.48;16.13;;;;;;;;;;10288078;28;20056;-60
2021/11/19 18:09:40;;;;;;;22.15;16.55;;;;;;;;;;10283482;28;20536;-61
2021/11/19 18:14:39;;;;;;;21.77;15.30;;;;;;;;;;10278761;28;20077;-59
2021/11/19 18:19:40;;;;;;;21.80;16.13;;;;;;;;;;10276358;28;20514;-59
2021/11/19 18:24:40;;;;;;;24.48;16.55;;;;;;;;;;10279094;28;20114;-59
2021/11/19 18:29:39;;;;;;;32.92;22.23;;;;;;;;;;10275784;28;20076;-60
2021/11/19 18:34:39;;;;;;;31.45;20.42;;;;;;;;;;10274721;28;20069;-58
2021/11/19 18:39:40;;;;;;;20.80;14.95;;;;;;;;;;10290621;28;20068;-60
2021/11/19 18:44:40;;;;;;;23.13;15.80;;;;;;;;;;10284482;28;20080;-59
2021/11/19 18:49:40;;;;;;;21.52;15.63;;;;;;;;;;10276588;28;20090;-59
2021/11/19 18:54:40;;;;;;;18.75;13.20;;;;;;;;;;10283191;28;20495;-58
2021/11/19 18:59:39;;;;;;;26.13;16.08;;;;;;;;;;10289219;28;20080;-60
2021/11/19 19:04:37;;;;;;;18.33;14.20;;;;;;;;;;10290923;28;20473;-61
2021/11/19 19:09:37;;;;;;;23.73;16.30;;;;;;;;;;10294810;28;20068;-59
2021/11/19 19:14:36;;;;;;;19.60;13.52;;;;;;;;;;10274225;28;20075;-58
2021/11/19 19:19:35;;;;;;;17.13;14.32;;;;;;;;;;10288343;28;20076;-59
2021/11/19 19:24:37;;;;;;;22.98;17.42;;;;;;;;;;10289159;28;20075;-59
2021/11/19 19:29:37;;;;;;;18.05;14.52;;;;;;;;;;10288593;28;20481;-60
2021/11/19 19:34:36;;;;;;;22.75;13.80;;;;;;;;;;10294544;28;20525;-59
2021/11/19 19:39:44;;;;;;;19.95;12.93;;;;;;;;;;10211552;28;20328;-58
2021/11/19 19:44:43;;;;;;;20.20;15.60;;;;;;;;;;10102989;28;20045;-59
2021/11/19 19:49:41;;;;;;;22.27;16.65;;;;;;;;;;10258537;28;20131;-60
2021/11/19 19:54:42;;;;;;;18.77;14.35;;;;;;;;;;10278906;28;20065;-59
2021/11/19 19:59:41;;;;;;;21.65;14.90;;;;;;;;;;10272376;28;20120;-59
2021/11/19 20:04:40;;;;;;;21.27;15.13;;;;;;;;;;10277674;28;20088;-59
2021/11/19 20:09:40;;;;;;;19.35;14.15;;;;;;;;;;10165780;28;20076;-59
2021/11/19 20:14:41;;;;;;;17.45;13.98;;;;;;;;;;10160023;28;20048;-59
2021/11/19 20:20:00;;;;;;;25.40;19.13;;;;;;;;;;10191947;28;20183;-59
2021/11/19 20:24:59;;;;;;;17.75;13.35;;;;;;;;;;10102912;28;20724;-59
2021/11/19 20:30:00;;;;;;;19.60;16.08;;;;;;;;;;10105689;28;20302;-60
2021/11/19 20:35:00;;;;;;;19.27;13.77;;;;;;;;;;10141463;28;20456;-61
2021/11/19 20:39:59;;;;;;;16.17;13.32;;;;;;;;;;10281823;28;20466;-59
2021/11/19 20:45:00;;;;;;;25.08;13.88;;;;;;;;;;10283979;28;20457;-60
2021/11/19 20:50:00;;;;;;;21.63;13.68;;;;;;;;;;10283438;28;20505;-59
2021/11/19 20:54:59;;;;;;;17.92;12.68;;;;;;;;;;10285108;28;20068;-60
2021/11/19 21:00:02;;;;;;;20.30;13.77;;;;;;;;;;10280886;28;20072;-59
2021/11/19 21:05:06;;;;;;;19.45;13.43;;;;;;;;;;10275551;28;20080;-60
2021/11/19 21:10:05;;;;;;;17.88;13.30;;;;;;;;;;10278416;28;20451;-60
2021/11/19 21:15:07;;;;;;;16.98;11.85;;;;;;;;;;10281158;28;20119;-59
2021/11/19 21:20:09;;;;;;;17.15;12.55;;;;;;;;;;10282434;28;20076;-59
2021/11/19 21:25:08;;;;;;;14.98;11.27;;;;;;;;;;10281590;28;20065;-59
2021/11/19 21:30:10;;;;;;;16.15;11.77;;;;;;;;;;10284317;28;20590;-60
2021/11/19 21:35:13;;;;;;;25.45;16.10;;;;;;;;;;10294485;28;20091;-60
2021/11/19 21:40:12;;;;;;;17.40;12.85;;;;;;;;;;10302796;28;20500;-59
2021/11/19 21:45:13;;;;;;;18.90;13.13;;;;;;;;;;10291373;28;20068;-59
2021/11/19 21:50:13;;;;;;;15.55;12.57;;;;;;;;;;10283053;28;20068;-60
2021/11/19 21:55:13;;;;;;;17.33;14.15;;;;;;;;;;10282364;28;20073;-60
2021/11/19 22:00:16;;;;;;;19.08;13.18;;;;;;;;;;10276414;28;20091;-60
2021/11/19 22:05:20;;;;;;;20.50;16.17;;;;;;;;;;10283071;28;20104;-59
2021/11/19 22:10:19;;;;;;;16.20;13.10;;;;;;;;;;10278306;28;20142;-60
2021/11/19 22:15:22;;;;;;;21.98;14.85;;;;;;;;;;10276625;28;20135;-59
2021/11/19 22:20:23;;;;;;;23.35;16.35;;;;;;;;;;10272834;28;20080;-60
2021/11/19 22:25:24;;;;;;;23.50;17.25;;;;;;;;;;10276683;28;20538;-59
2021/11/19 22:30:24;;;;;;;38.22;22.50;;;;;;;;;;10279983;28;20463;-58
2021/11/19 22:35:24;;;;;;;23.92;18.73;;;;;;;;;;10271373;28;20077;-58
2021/11/19 22:40:25;;;;;;;21.88;15.70;;;;;;;;;;10287828;28;20067;-59
2021/11/19 22:45:25;;;;;;;29.27;20.95;;;;;;;;;;10293234;28;20076;-60
2021/11/19 22:50:27;;;;;;;28.45;19.35;;;;;;;;;;10289219;28;20075;-58
2021/11/19 22:55:26;;;;;;;18.35;14.48;;;;;;;;;;10282256;28;20068;-59
2021/11/19 23:00:26;;;;;;;20.52;15.20;;;;;;;;;;10281820;28;20064;-59
2021/11/19 23:05:28;;;;;;;21.23;15.65;;;;;;;;;;10276869;28;20068;-59
2021/11/19 23:10:28;;;;;;;23.60;17.40;;;;;;;;;;10268147;28;20080;-59
2021/11/19 23:15:28;;;;;;;19.13;14.55;;;;;;;;;;10273504;28;20493;-59
2021/11/19 23:20:29;;;;;;;17.98;15.07;;;;;;;;;;10274461;28;20076;-59
2021/11/19 23:25:31;;;;;;;20.35;14.15;;;;;;;;;;10308629;28;20083;-59
2021/11/19 23:30:33;;;;;;;19.80;12.93;;;;;;;;;;10312486;28;20083;-59
2021/11/19 23:35:34;;;;;;;18.25;13.48;;;;;;;;;;10304283;28;20094;-59
2021/11/19 23:40:34;;;;;;;20.00;14.80;;;;;;;;;;10271233;28;20088;-59
2021/11/19 23:45:34;;;;;;;18.52;13.15;;;;;;;;;;10300765;28;20505;-59
2021/11/19 23:50:34;;;;;;;17.08;13.02;;;;;;;;;;10275347;28;20076;-60
2021/11/19 23:55:46;;;;;;;22.67;14.35;;;;;;;;;;10296885;28;20072;-60
